Latest Weather Observations for Blackall

IDQ60801

Issued at 5:42 pm EST Sunday 15 September 2019 (issued every 10 minutes, with the page automatically refreshed every 10 minutes)

About weather observations | Map of weather stations | Latest weather observations for QLD | Other Formats
Station Details ID: 036034 Name: BLACKALL AIRPORT Lat: -24.43 Lon: 145.43 Height: 281.3 m
Data from the previous 72 hours. | See also: Recent months at Blackall
Date/Time
EST
Temp
°C
App
Temp
°C
Dew
Point
°C
Rel
Hum
%
Delta-T
°C
Wind Press
QNH
hPa
Press
MSL
hPa
Rain since
9am
mm
Dir  Spd
km/h
Gust
km/h
Spd
kts
Gust
kts
15/05:30pm 30.2 25.0 -11.3 6 16.5 NE 11 13 6 7 1019.3 1018.3 0.0
15/05:00pm 31.1 27.2 -10.7 6 16.9 NW 4 11 2 6 1019.2 1018.2 0.0
15/04:30pm 31.1 25.0 -12.9 5 17.2 NE 15 19 8 10 1019.0 1018.0 0.0
15/04:00pm 31.2 25.3 -10.6 6 17.0 ENE 15 20 8 11 1018.8 1017.8 0.0
15/03:30pm 31.2 26.0 -10.6 6 17.0 N 11 22 6 12 1018.7 1017.7 0.0
15/03:00pm 31.8 26.5 -12.4 5 17.5 N 11 22 6 12 1018.9 1017.9 0.0
15/02:30pm 31.2 25.9 -12.9 5 17.3 ENE 11 20 6 11 1019.0 1018.0 0.0
15/02:00pm 31.2 25.5 -12.9 5 17.2 NE 13 24 7 13 1019.4 1018.4 0.0
15/01:30pm 31.3 25.0 -10.5 6 17.1 N 17 32 9 17 1019.9 1018.9 0.0
15/01:00pm 31.2 25.3 -10.6 6 17.0 NNE 15 32 8 17 1020.2 1019.2 0.0
15/12:30pm 30.4 23.5 -11.2 6 16.6 NNE 20 30 11 16 1020.8 1019.8 0.0
15/12:00pm 30.9 25.2 -13.1 5 17.1 NNE 13 22 7 12 1021.3 1020.4 0.0
15/11:30am 30.9 24.2 -10.8 6 16.9 NE 19 28 10 15 1021.8 1020.8 0.0
15/11:00am 29.1 22.1 -12.1 6 16.0 NE 20 30 11 16 1022.1 1021.1 0.0
15/10:30am 28.9 20.9 -10.3 7 15.7 NE 26 33 14 18 1022.6 1021.6 0.0
15/10:00am 28.3 19.9 -10.7 7 15.4 NE 28 43 15 23 1022.8 1021.8 0.0
15/09:30am 27.3 20.7 -9.8 8 14.8 ENE 19 28 10 15 1022.9 1021.9 0.0
15/09:00am 24.7 17.7 -11.7 8 13.6 ENE 20 28 11 15 1023.2 1022.2 0.0
15/08:30am 22.7 15.9 -11.8 9 12.6 E 19 30 10 16 1023.1 1022.1 0.0
15/08:00am 19.2 14.4 -10.9 12 10.7 ESE 9 13 5 7 1023.2 1022.2 0.0
15/07:30am 14.7 10.4 -9.3 18 8.4 ESE 7 9 4 5 1022.9 1021.9 0.0
15/07:00am 10.4 6.7 -8.8 25 6.4 ESE 4 6 2 3 1022.6 1021.6 0.0
15/06:30am 7.9 3.6 -9.0 29 5.4 ESE 7 7 4 4 1022.1 1021.1 0.0
15/06:00am 8.2 4.0 -10.6 25 5.8 ESE 6 9 3 5 1021.9 1020.9 0.0
15/05:30am 10.1 5.3 -10.1 23 6.5 ESE 9 11 5 6 1021.5 1020.6 0.0
15/05:00am 9.3 3.8 -9.7 25 6.1 ESE 13 15 7 8 1021.1 1020.1 0.0
15/04:30am 9.0 6.0 -9.9 25 6.0 CALM 0 0 0 0 1021.0 1020.0 0.0
15/04:00am 9.8 6.3 -10.3 23 6.4 SE 2 6 1 3 1020.5 1019.5 0.0
15/03:30am 11.8 7.5 -11.7 18 7.5 SSE 6 11 3 6 1020.3 1019.3 0.0
15/03:00am 13.2 8.0 -11.3 17 8.0 SSE 11 13 6 7 1020.3 1019.3 0.0
15/02:30am 14.3 9.0 -11.9 15 8.6 SE 11 13 6 7 1020.4 1019.4 0.0
15/02:00am 15.4 9.4 -11.9 14 9.1 SE 15 17 8 9 1020.4 1019.4 0.0
15/01:30am 14.6 9.0 -11.7 15 8.7 SE 13 17 7 9 1020.8 1019.8 0.0
15/01:00am 14.3 9.1 -11.1 16 8.5 SE 11 13 6 7 1021.0 1020.0 0.0
15/12:30am 13.2 8.4 -9.9 19 7.8 SE 9 11 5 6 1021.1 1020.1 0.0
15/12:00am 14.6 10.2 -10.9 16 8.6 SE 7 9 4 5 1021.2 1020.3 0.0
 
Date/Time
EST
Temp
°C
App
Temp
°C
Dew
Point
°C
Rel
Hum
%
Delta-T
°C
Wind Press
QNH
hPa
Press
MSL
hPa
Rain since
9am
mm
Dir  Spd
km/h
Gust
km/h
Spd
kts
Gust
kts
14/11:30pm 16.8 11.9 -11.7 13 9.7 SE 9 11 5 6 1021.2 1020.3 0.0
14/11:00pm 17.6 12.3 -12.1 12 10.1 SSE 11 13 6 7 1021.3 1020.4 0.0
14/10:30pm 18.5 13.6 -11.4 12 10.5 SSE 9 11 5 6 1021.4 1020.5 0.0
14/10:00pm 19.9 14.7 -11.4 11 11.1 SE 11 13 6 7 1021.4 1020.5 0.0
14/09:30pm 20.4 15.1 -12.2 10 11.5 SE 11 15 6 8 1021.5 1020.6 0.0
14/09:00pm 20.9 15.6 -11.8 10 11.6 SSE 11 13 6 7 1021.7 1020.7 0.0
14/08:30pm 21.6 16.3 -12.6 9 12.1 SSE 11 13 6 7 1021.7 1020.7 0.0
14/08:00pm 21.9 16.6 -12.4 9 12.2 SSE 11 13 6 7 1021.3 1020.4 0.0
14/07:30pm 21.7 16.8 -12.5 9 12.2 SSE 9 13 5 7 1021.1 1020.1 0.0
14/07:00pm 24.2 19.2 -13.7 7 13.5 SSE 9 11 5 6 1020.7 1019.7 0.0
14/06:30pm 26.1 21.1 -14.2 6 14.6 SE 9 11 5 6 1020.5 1019.5 0.0
14/06:00pm 27.8 22.5 -13.0 6 15.4 SSE 11 15 6 8 1020.3 1019.3 0.0
14/05:30pm 29.3 23.1 -14.2 5 16.4 SSE 15 20 8 11 1020.0 1019.0 0.0
14/05:00pm 29.9 23.7 -13.8 5 16.6 SE 15 20 8 11 1019.9 1018.9 0.0
14/04:30pm 30.4 24.8 -11.2 6 16.6 SE 13 19 7 10 1019.8 1018.8 0.0
14/04:00pm 30.5 24.9 -11.1 6 16.6 SSE 13 24 7 13 1019.8 1018.8 0.0
14/03:30pm 30.4 24.0 -11.2 6 16.6 SSE 17 28 9 15 1019.9 1018.9 0.0
14/03:00pm 30.4 24.3 -13.4 5 16.8 SSW 15 26 8 14 1020.0 1019.0 0.0
14/02:30pm 30.5 24.9 -11.1 6 16.7 ESE 13 22 7 12 1020.3 1019.3 0.0
14/02:00pm 30.5 24.4 -13.3 5 16.9 SSE 15 24 8 13 1020.7 1019.7 0.0
14/01:30pm 29.7 24.1 -11.7 6 16.3 S 13 28 7 15 1021.0 1020.0 0.0
14/01:00pm 29.6 24.0 -11.7 6 16.2 ESE 13 24 7 13 1021.7 1020.7 0.0
14/12:30pm 28.5 22.4 -12.5 6 15.7 SE 15 22 8 12 1022.2 1021.2 0.0
14/12:00pm 28.0 22.0 -11.0 7 15.2 ESE 15 26 8 14 1022.8 1021.8 0.0
14/11:30am 27.8 21.4 -11.1 7 15.2 SE 17 24 9 13 1023.3 1022.3 0.0
14/11:00am 27.6 21.2 -11.3 7 15.0 SE 17 26 9 14 1023.6 1022.6 0.0
14/10:30am 27.2 20.9 -9.9 8 14.7 ESE 17 26 9 14 1023.9 1022.9 0.0
14/10:00am 27.2 20.9 -9.9 8 14.6 E 17 22 9 12 1024.1 1023.1 0.0
14/09:30am 25.2 18.9 -9.9 9 13.6 E 17 24 9 13 1024.3 1023.4 0.0
14/09:00am 23.4 17.9 -9.9 10 12.6 E 13 17 7 9 1024.4 1023.5 0.0
14/08:30am 20.8 15.8 -8.6 13 11.2 ESE 11 15 6 8 1024.3 1023.4 0.0
14/08:00am 16.8 12.5 -8.4 17 9.2 ESE 7 11 4 6 1024.1 1023.1 0.0
14/07:30am 12.8 8.8 -7.8 23 7.3 SE 6 7 3 4 1023.7 1022.7 0.0
14/07:00am 8.8 4.7 -7.0 32 5.4 ESE 7 9 4 5 1023.2 1022.2 0.0
14/06:30am 6.5 3.6 -8.6 33 4.8 CALM 0 0 0 0 1022.8 1021.8 0.0
14/06:00am 7.0 4.1 -8.5 32 4.9 CALM 0 0 0 0 1022.4 1021.4 0.0
14/05:30am 8.4 5.5 -8.1 30 5.5 CALM 0 0 0 0 1022.2 1021.2 0.0
14/05:00am 9.2 4.2 -8.3 28 5.8 SE 11 13 6 7 1021.9 1020.9 0.0
14/04:30am 8.2 3.6 -8.3 30 5.4 SE 9 13 5 7 1021.7 1020.7 0.0
14/04:00am 8.9 4.2 -8.6 28 5.7 SE 9 9 5 5 1021.7 1020.7 0.0
14/03:30am 8.7 4.1 -8.3 29 5.6 SE 9 11 5 6 1021.7 1020.7 0.0
14/03:00am 8.3 4.0 -9.1 28 5.6 SE 7 9 4 5 1021.8 1020.8 0.0
14/02:30am 8.8 4.1 -8.7 28 5.7 S 9 9 5 5 1022.0 1021.0 0.0
14/02:00am 10.0 5.7 -9.1 25 6.3 SSE 7 9 4 5 1022.2 1021.2 0.0
14/01:30am 12.4 7.4 -8.7 22 7.3 SSE 11 13 6 7 1022.3 1021.3 0.0
14/01:00am 11.4 7.1 -9.0 23 6.8 SE 7 11 4 6 1022.6 1021.6 0.0
14/12:30am 11.4 6.8 -8.4 24 6.8 SSE 9 11 5 6 1022.6 1021.6 0.0
14/12:00am 12.3 8.0 -8.8 22 7.2 S 7 9 4 5 1022.6 1021.6 0.0
 
Date/Time
EST
Temp
°C
App
Temp
°C
Dew
Point
°C
Rel
Hum
%
Delta-T
°C
Wind Press
QNH
hPa
Press
MSL
hPa
Rain since
9am
mm
Dir  Spd
km/h
Gust
km/h
Spd
kts
Gust
kts
13/11:30pm 15.2 10.4 -10.4 16 8.8 S 9 11 5 6 1022.7 1021.7 0.0
13/11:00pm 16.3 11.2 -9.5 16 9.1 S 11 15 6 8 1022.8 1021.8 0.0
13/10:30pm 16.9 11.5 -9.0 16 9.4 SSW 13 17 7 9 1022.8 1021.8 0.0
13/10:00pm 14.3 9.7 -7.7 21 7.9 SSW 9 15 5 8 1022.7 1021.7 0.0
13/09:30pm 14.8 10.3 -7.3 21 8.1 SSE 9 11 5 6 1022.6 1021.6 0.0
13/09:00pm 15.1 10.5 -7.7 20 8.2 SSE 9 11 5 6 1022.6 1021.6 0.0
13/08:30pm 16.6 12.4 -7.8 18 9.0 SSW 7 9 4 5 1022.4 1021.4 0.0
13/08:00pm 18.1 13.9 -8.1 16 9.7 S 7 9 4 5 1022.2 1021.2 0.0
13/07:30pm 19.5 15.4 -8.7 14 10.6 SSE 6 7 3 4 1021.9 1020.9 0.0
13/07:00pm 21.9 17.5 -9.9 11 11.9 S 7 7 4 4 1021.7 1020.7 0.0
13/06:30pm 25.4 21.0 -9.7 9 13.7 SE 7 9 4 5 1021.4 1020.5 0.0
13/06:00pm 27.3 22.6 -9.8 8 14.7 S 9 13 5 7 1021.1 1020.1 0.0
13/05:30pm 28.8 23.2 -10.4 7 15.7 S 13 20 7 11 1020.9 1019.9 0.0
13/05:00pm 29.4 22.7 -9.9 7 15.9 SSE 19 24 10 13 1020.8 1019.8 0.0
13/04:30pm 29.6 23.0 -9.8 7 16.0 S 19 28 10 15 1020.7 1019.7 0.0
13/04:00pm 29.6 24.1 -9.8 7 16.0 SSW 13 24 7 13 1020.6 1019.6 0.0
13/03:30pm 30.0 23.8 -9.5 7 16.2 SSW 17 24 9 13 1020.7 1019.7 0.0
13/03:00pm 29.4 23.1 -9.9 7 15.9 S 17 26 9 14 1020.8 1019.8 0.0
13/02:30pm 29.7 23.8 -9.7 7 16.1 S 15 20 8 11 1021.0 1020.0 0.0
13/02:00pm 28.7 23.1 -10.5 7 15.6 S 13 24 7 13 1021.4 1020.5 0.0
13/01:30pm 28.8 23.6 -10.4 7 15.7 SSE 11 24 6 13 1022.0 1021.0 0.0
13/01:00pm 28.6 23.9 -8.8 8 15.3 S 9 22 5 12 1022.5 1021.5 0.0
13/12:30pm 27.9 22.9 -7.9 9 14.8 SSW 11 17 6 9 1023.1 1022.1 0.0
13/12:00pm 27.3 21.5 -8.3 9 14.5 SSE 15 24 8 13 1023.7 1022.7 0.0
13/11:30am 27.2 21.8 -8.4 9 14.5 SE 13 20 7 11 1024.2 1023.2 0.0
13/11:00am 26.0 21.4 -7.9 10 13.7 SE 9 17 5 9 1024.6 1023.7 0.0
13/10:30am 25.8 20.9 -6.9 11 13.5 E 11 20 6 11 1025.0 1024.1 0.0
13/10:00am 24.4 20.1 -4.8 14 12.3 E 9 13 5 7 1025.2 1024.3 0.0
13/09:30am 23.2 18.5 -4.8 15 11.8 ESE 11 17 6 9 1025.2 1024.3 0.0
13/09:00am 21.5 17.4 -3.1 19 10.5 ESE 9 11 5 6 1025.5 1024.5 0.0
13/08:30am 18.6 15.5 -2.3 24 8.8 E 4 7 2 4 1025.5 1024.5 0.0
13/08:00am 15.4 11.3 -3.0 28 7.4 ESE 9 13 5 7 1025.1 1024.2 0.0
13/07:30am 12.7 9.1 -3.5 32 6.3 SE 6 9 3 5 1024.9 1024.0 0.0
13/07:00am 10.8 6.6 -4.0 35 5.5 SE 9 9 5 5 1024.5 1023.6 0.0
13/06:30am 9.2 4.6 -4.4 38 5.0 ESE 11 13 6 7 1024.0 1023.0 0.0
13/06:00am 8.8 4.6 -4.0 40 4.7 SE 9 11 5 6 1023.7 1022.7 0.0
13/05:30am 8.7 4.5 -3.5 42 4.5 SE 9 11 5 6 1023.5 1022.5 0.0
13/05:00am 7.2 2.9 -4.5 43 4.1 SE 9 11 5 6 1023.4 1022.4 0.0
13/04:30am 8.9 4.8 -3.3 42 4.6 S 9 9 5 5 1023.1 1022.1 0.0
13/04:00am 8.1 4.6 -2.5 47 4.0 NE 6 7 3 4 1022.9 1021.9 0.0
13/03:30am 8.4 5.1 -4.4 40 4.6 SSW 4 7 2 4 1022.7 1021.7 0.0
13/03:00am 8.8 5.0 -3.7 41 4.6 SSE 7 9 4 5 1022.7 1021.7 0.0
13/02:30am 9.7 5.6 -3.2 40 4.9 SSE 9 9 5 5 1023.1 1022.1 0.0
13/02:00am 9.5 5.2 -4.4 37 5.1 SSE 9 11 5 6 1023.4 1022.4 0.0
13/01:30am 10.0 5.5 -3.6 38 5.1 S 11 15 6 8 1023.9 1022.9 0.0
13/01:00am 11.1 8.4 -2.3 39 5.2 N 2 6 1 3 1024.1 1023.1 0.0
13/12:30am 10.0 6.4 -3.3 39 5.0 S 6 7 3 4 1024.1 1023.1 0.0
13/12:00am 10.6 7.8 -3.5 37 5.3 ESE 2 9 1 5 1024.2 1023.2 0.0
 
Date/Time
EST
Temp
°C
App
Temp
°C
Dew
Point
°C
Rel
Hum
%
Delta-T
°C
Wind Press
QNH
hPa
Press
MSL
hPa
Rain since
9am
mm
Dir  Spd
km/h
Gust
km/h
Spd
kts
Gust
kts
12/11:30pm 11.0 8.6 -3.5 36 5.5 CALM 0 0 0 0 1024.2 1023.2 0.0
12/11:00pm 11.9 8.2 -3.1 35 5.8 ESE 7 9 4 5 1024.3 1023.4 0.0
12/10:30pm 12.7 9.2 -2.7 34 6.1 ESE 6 7 3 4 1024.4 1023.5 0.0
12/10:00pm 13.9 11.5 -2.9 31 6.7 CALM 0 0 0 0 1024.4 1023.5 0.0
12/09:30pm 14.5 11.8 -2.4 31 6.8 SE 2 6 1 3 1024.5 1023.6 0.0
12/09:00pm 14.8 11.2 -2.1 31 6.9 S 7 9 4 5 1024.5 1023.6 0.0
12/08:30pm 15.4 11.3 -3.0 28 7.4 SSE 9 13 5 7 1024.5 1023.6 0.0
12/08:00pm 17.0 13.5 -1.6 28 7.8 S 7 7 4 4 1024.3 1023.4 0.0
12/07:30pm 18.1 15.9 -1.7 26 8.4 CALM 0 0 0 0 1024.1 1023.1 0.0
12/07:00pm 19.4 16.0 -2.2 23 9.2 SSE 6 7 3 4 1023.8 1022.8 0.0
12/06:30pm 21.6 18.1 -3.0 19 10.5 SSE 6 7 3 4 1023.3 1022.3 0.0
12/06:00pm 24.5 21.1 -2.1 17 11.8 SE 6 7 3 4 1022.9 1021.9 0.0

Other formats

Comma delimited format used in spreadsheet applications
http://www.bom.gov.au/fwo/IDQ60801/IDQ60801.95351.axf

JavaScript Object Notation format (JSON) in row-major order
http://www.bom.gov.au/fwo/IDQ60801/IDQ60801.95351.json

Data quality

Most of these data are generated automatically and are frequently updated. Quality checks on data are not normally performed. It is possible for incorrect values to appear. Refer to information at About Latest Weather Observations and please check the disclaimer before using these data.